createdAt,value
2018-09-26T00:00:56.283Z,60.10
2018-09-26T00:03:28.328Z,60.10
2018-09-26T00:05:55.958Z,60.20
2018-09-26T00:08:23.501Z,60.30
2018-09-26T00:10:51.397Z,60.40
2018-09-26T00:13:18.942Z,60.40
2018-09-26T00:15:46.684Z,61.10
2018-09-26T00:18:14.798Z,60.40
2018-09-26T00:20:42.381Z,60.50
2018-09-26T00:23:09.929Z,60.50
2018-09-26T00:25:37.576Z,60.60
2018-09-26T00:28:05.853Z,60.70
2018-09-26T00:30:33.633Z,60.90
2018-09-26T00:33:01.303Z,61.00
2018-09-26T00:35:29.016Z,61.00
2018-09-26T00:37:56.551Z,61.20
2018-09-26T00:40:24.102Z,61.30
2018-09-26T00:42:51.989Z,61.40
2018-09-26T00:45:19.553Z,61.50
2018-09-26T00:47:47.189Z,61.60
2018-09-26T00:50:14.884Z,61.80
2018-09-26T00:52:42.534Z,61.90
2018-09-26T00:55:10.129Z,62.00
2018-09-26T00:57:37.765Z,62.10
2018-09-26T01:00:05.560Z,62.20
2018-09-26T01:02:33.097Z,62.20
2018-09-26T01:05:00.904Z,62.30
2018-09-26T01:07:28.467Z,62.40
2018-09-26T01:09:56.247Z,62.40
2018-09-26T01:12:23.815Z,62.40
2018-09-26T01:14:51.374Z,63.20
2018-09-26T01:17:19.258Z,62.50
2018-09-26T01:19:46.848Z,62.60
2018-09-26T01:22:14.413Z,62.70
2018-09-26T01:24:42.049Z,62.80
2018-09-26T01:27:09.637Z,62.80
2018-09-26T01:29:37.276Z,62.70
2018-09-26T01:32:08.602Z,62.80
2018-09-26T01:34:36.115Z,62.90
2018-09-26T01:37:03.920Z,62.90
2018-09-26T01:39:31.732Z,63.70
2018-09-26T01:41:59.373Z,63.10
2018-09-26T01:44:26.984Z,63.20
2018-09-26T01:46:54.833Z,63.20
2018-09-26T01:49:22.454Z,63.30
2018-09-26T01:51:50.018Z,63.30
2018-09-26T01:54:17.842Z,63.40
2018-09-26T01:56:45.428Z,63.40
2018-09-26T01:59:12.985Z,63.50
2018-09-26T02:01:41.028Z,63.60
2018-09-26T02:04:08.556Z,63.60
2018-09-26T02:06:36.116Z,63.60
2018-09-26T02:09:07.634Z,63.60
2018-09-26T02:11:35.200Z,63.70
2018-09-26T02:14:02.860Z,63.70
2018-09-26T02:16:30.731Z,63.70
2018-09-26T02:18:58.320Z,63.80
2018-09-26T02:21:25.879Z,64.50
2018-09-26T02:23:53.504Z,63.30
2018-09-26T02:26:21.063Z,63.80
2018-09-26T02:28:48.648Z,63.90
2018-09-26T02:31:16.516Z,63.90
2018-09-26T02:33:44.261Z,64.00
2018-09-26T02:36:13.099Z,64.10
2018-09-26T02:38:40.645Z,64.10
2018-09-26T02:41:08.200Z,64.20
2018-09-26T02:43:36.072Z,64.20
2018-09-26T02:46:03.659Z,64.30
2018-09-26T02:48:37.456Z,64.30
2018-09-26T02:51:05.100Z,64.40
2018-09-26T02:53:32.715Z,64.40
2018-09-26T02:56:00.777Z,64.50
2018-09-26T02:58:28.349Z,64.50
2018-09-26T03:00:55.952Z,64.60
2018-09-26T03:03:23.662Z,64.60
2018-09-26T03:05:51.502Z,64.70
2018-09-26T03:08:19.057Z,64.80
2018-09-26T03:10:46.679Z,64.80
2018-09-26T03:13:16.518Z,64.80
2018-09-26T03:15:44.084Z,64.90
2018-09-26T03:18:11.995Z,64.90
2018-09-26T03:20:39.543Z,65.00
2018-09-26T03:23:30.506Z,65.00
2018-09-26T03:26:07.008Z,65.00
2018-09-26T03:28:34.880Z,64.90
2018-09-26T05:53:56.918Z,70.70
2018-09-26T05:56:24.658Z,71.90
2018-09-26T05:58:52.573Z,71.80
2018-09-26T06:01:20.160Z,72.00
2018-09-26T06:03:47.744Z,70.70
2018-09-26T06:06:15.560Z,70.20
2018-09-26T06:08:43.154Z,69.10
2018-09-26T06:11:10.746Z,68.10
2018-09-26T06:13:38.869Z,67.20
2018-09-26T06:16:06.950Z,66.20
2018-09-26T06:18:34.532Z,65.10
2018-09-26T06:21:02.485Z,64.10
2018-09-26T06:23:30.081Z,63.30
2018-09-26T06:25:57.629Z,62.80
2018-09-26T06:28:25.489Z,62.60
2018-09-26T06:30:53.064Z,62.80
2018-09-26T06:33:20.778Z,63.10
2018-09-26T06:35:48.593Z,63.80
2018-09-26T06:38:16.188Z,64.20
2018-09-26T06:40:43.769Z,64.00
2018-09-26T06:43:11.730Z,63.90
2018-09-26T06:45:39.369Z,63.30
2018-09-26T06:48:06.921Z,62.30
2018-09-26T06:50:34.723Z,60.80
2018-09-26T06:53:02.264Z,59.80
2018-09-26T06:55:29.918Z,58.90
2018-09-26T06:57:57.738Z,57.90
2018-09-26T07:00:25.485Z,57.40
2018-09-26T07:02:53.025Z,57.30
2018-09-26T07:05:20.929Z,57.00
2018-09-26T07:10:24.660Z,56.70
2018-09-26T07:12:52.233Z,56.10
2018-09-26T07:15:19.803Z,55.20
2018-09-26T07:17:48.119Z,54.40
2018-09-26T07:20:15.667Z,53.70
2018-09-26T07:22:43.513Z,53.10
2018-09-26T07:25:11.093Z,52.90
2018-09-26T07:27:38.681Z,52.90
2018-09-26T07:30:06.691Z,53.00
2018-09-26T07:32:34.250Z,53.30
2018-09-26T07:35:01.816Z,53.60
2018-09-26T07:37:29.605Z,53.60
2018-09-26T07:39:57.224Z,54.00
2018-09-26T07:42:24.790Z,54.70
2018-09-26T07:44:52.481Z,55.10
2018-09-26T07:47:20.029Z,55.60
2018-09-26T07:49:47.540Z,55.80
2018-09-26T07:52:15.391Z,55.50
2018-09-26T07:54:42.929Z,55.40
2018-09-26T07:57:10.532Z,55.30
2018-09-26T07:59:38.408Z,55.10
2018-09-26T08:02:05.996Z,54.60
2018-09-26T08:04:33.503Z,54.30
2018-09-26T08:07:01.901Z,54.60
2018-09-26T08:09:29.465Z,52.90
2018-09-26T08:11:57.007Z,51.80
2018-09-26T08:14:24.930Z,50.70
2018-09-26T08:16:52.498Z,50.40
2018-09-26T08:19:20.534Z,50.30
2018-09-26T08:21:48.077Z,50.40
2018-09-26T08:24:15.640Z,50.20
2018-09-26T08:26:43.229Z,49.90
2018-09-26T08:29:10.808Z,49.30
2018-09-26T08:31:38.440Z,48.70
2018-09-26T08:34:06.638Z,48.10
2018-09-26T08:36:34.253Z,47.70
2018-09-26T08:39:01.797Z,47.10
2018-09-26T08:41:29.672Z,47.00
2018-09-26T08:43:57.224Z,46.20
2018-09-26T08:46:24.748Z,45.00
2018-09-26T08:48:52.441Z,43.90
2018-09-26T08:51:19.976Z,43.10
2018-09-26T08:53:47.543Z,42.70
2018-09-26T08:56:15.569Z,42.50
2018-09-26T08:58:43.129Z,42.70
2018-09-26T09:01:16.692Z,42.90
2018-09-26T09:03:44.244Z,42.30
2018-09-26T09:06:11.798Z,42.20
2018-09-26T09:08:39.825Z,41.90
2018-09-26T09:11:07.377Z,40.10
2018-09-26T09:13:34.940Z,39.10
2018-09-26T09:16:02.758Z,38.20
2018-09-26T09:18:30.305Z,36.50
2018-09-26T09:20:58.508Z,36.30
2018-09-26T09:23:26.241Z,36.40
2018-09-26T09:25:53.796Z,36.70
2018-09-26T09:28:21.365Z,37.30
2018-09-26T09:30:49.257Z,38.20
2018-09-26T09:35:50.515Z,38.20
2018-09-26T09:38:18.076Z,38.40
2018-09-26T09:40:45.577Z,37.90
2018-09-26T09:43:13.532Z,37.20
2018-09-26T09:45:41.105Z,36.80
2018-09-26T09:48:08.651Z,36.20
2018-09-26T09:50:36.639Z,35.90
2018-09-26T09:53:04.205Z,36.20
2018-09-26T09:55:31.777Z,36.30
2018-09-26T09:57:59.542Z,36.00
2018-09-26T10:00:32.926Z,36.10
2018-09-26T10:03:00.973Z,36.00
2018-09-26T10:05:28.495Z,36.00
2018-09-26T10:07:56.373Z,35.80
2018-09-26T10:10:24.716Z,35.60
2018-09-26T10:12:52.257Z,35.60
2018-09-26T10:15:19.832Z,34.80
2018-09-26T10:17:47.629Z,34.40
2018-09-26T10:20:15.234Z,34.30
2018-09-26T10:22:43.104Z,34.20
2018-09-26T10:25:11.083Z,34.00
2018-09-26T10:27:38.674Z,33.20
2018-09-26T10:30:06.890Z,32.90
2018-09-26T10:32:34.765Z,32.90
2018-09-26T10:35:02.499Z,32.60
2018-09-26T10:37:30.067Z,32.20
2018-09-26T10:39:57.762Z,32.30
2018-09-26T10:42:25.302Z,31.70
2018-09-26T10:44:52.829Z,31.80
2018-09-26T10:47:20.653Z,32.10
2018-09-26T10:49:48.756Z,32.30
2018-09-26T10:52:16.328Z,32.30
2018-09-26T10:54:44.149Z,32.20
2018-09-26T10:57:11.661Z,31.50
2018-09-26T10:59:39.172Z,31.20
2018-09-26T11:02:07.286Z,31.40
2018-09-26T11:04:34.829Z,31.50
2018-09-26T11:07:02.371Z,31.40
2018-09-26T11:09:30.116Z,31.00
2018-09-26T11:11:57.629Z,30.80
2018-09-26T11:14:25.321Z,30.90
2018-09-26T11:16:53.086Z,30.80
2018-09-26T11:19:20.682Z,31.20
2018-09-26T11:21:48.197Z,31.20
2018-09-26T11:24:16.702Z,31.80
2018-09-26T11:26:44.415Z,31.20
2018-09-26T11:29:12.009Z,31.20
2018-09-26T11:31:39.788Z,31.10
2018-09-26T11:34:07.423Z,31.20
2018-09-26T11:36:35.237Z,31.30
2018-09-26T11:39:03.909Z,31.40
2018-09-26T11:41:31.512Z,30.60
2018-09-26T11:43:59.219Z,30.60
2018-09-26T11:46:26.773Z,30.50
2018-09-26T11:48:54.288Z,30.50
2018-09-26T11:51:22.141Z,30.40
2018-09-26T11:53:49.772Z,30.30
2018-09-26T11:56:17.320Z,30.20
2018-09-26T11:58:44.882Z,30.20
2018-09-26T12:01:12.917Z,30.20
2018-09-26T12:03:40.487Z,30.00
2018-09-26T12:06:08.121Z,29.90
2018-09-26T12:08:35.826Z,29.70
2018-09-26T12:11:03.375Z,29.50
2018-09-26T12:13:30.898Z,29.60
2018-09-26T12:15:58.534Z,29.80
2018-09-26T12:18:26.147Z,29.90
2018-09-26T12:20:53.661Z,30.10
2018-09-26T12:23:21.427Z,30.10
2018-09-26T12:25:49.100Z,30.00
2018-09-26T12:28:16.894Z,30.10
2018-09-26T12:30:44.393Z,30.10
2018-09-26T12:33:12.054Z,30.00
2018-09-26T12:35:39.681Z,29.90
2018-09-26T12:38:07.249Z,30.00
2018-09-26T12:40:34.819Z,30.00
2018-09-26T12:43:02.462Z,30.00
2018-09-26T12:45:30.021Z,30.00
2018-09-26T12:47:57.552Z,30.00
2018-09-26T12:50:25.465Z,30.00
2018-09-26T12:52:53.408Z,30.20
2018-09-26T12:55:21.408Z,30.30
2018-09-26T12:57:49.173Z,30.40
2018-09-26T13:00:16.763Z,30.40
2018-09-26T13:02:44.340Z,30.50
2018-09-26T13:05:14.322Z,30.70
2018-09-26T13:07:41.978Z,30.80
2018-09-26T13:10:09.579Z,31.00
2018-09-26T13:12:37.423Z,31.00
2018-09-26T13:15:05.737Z,30.90
2018-09-26T13:17:33.623Z,30.70
2018-09-26T13:20:01.155Z,30.50
2018-09-26T13:22:28.694Z,30.00
2018-09-26T13:24:56.323Z,30.30
2018-09-26T13:27:25.239Z,30.30
2018-09-26T13:29:52.778Z,30.60
2018-09-26T13:32:20.640Z,30.20
2018-09-26T13:34:48.128Z,30.00
2018-09-26T13:37:15.715Z,30.30
2018-09-26T13:39:43.825Z,30.10
2018-09-26T13:42:11.444Z,30.00
2018-09-26T13:44:38.917Z,29.70
2018-09-26T13:47:06.613Z,29.80
2018-09-26T13:49:35.301Z,29.90
2018-09-26T13:52:03.058Z,29.90
2018-09-26T13:54:31.913Z,30.00
2018-09-26T13:56:59.453Z,30.00
2018-09-26T13:59:27.177Z,30.00
2018-09-26T14:01:54.826Z,30.10
2018-09-26T14:04:22.561Z,30.20
2018-09-26T14:06:50.294Z,30.30
2018-09-26T14:09:17.917Z,30.40
2018-09-26T14:11:45.470Z,30.50
2018-09-26T14:14:13.437Z,30.70
2018-09-26T14:16:40.933Z,30.80
2018-09-26T14:19:08.512Z,30.80
2018-09-26T14:21:38.043Z,30.80
2018-09-26T14:24:06.372Z,30.90
2018-09-26T14:26:34.721Z,31.20
2018-09-26T14:29:03.401Z,31.30
2018-09-26T14:31:31.991Z,31.30
2018-09-26T14:33:59.914Z,31.40
2018-09-26T14:36:28.143Z,31.50
2018-09-26T14:38:56.835Z,31.50
2018-09-26T14:41:25.499Z,31.40
2018-09-26T14:43:53.479Z,31.40
2018-09-26T14:46:21.377Z,31.40
2018-09-26T14:48:49.559Z,31.50
2018-09-26T14:51:17.592Z,31.50
2018-09-26T14:53:45.604Z,31.60
2018-09-26T14:56:13.670Z,31.60
2018-09-26T14:58:41.583Z,31.60
2018-09-26T15:01:09.874Z,31.90
2018-09-26T15:03:38.153Z,32.00
2018-09-26T15:06:06.128Z,32.10
2018-09-26T15:08:34.239Z,32.20
2018-09-26T15:11:02.170Z,32.20
2018-09-26T15:13:30.106Z,32.30
2018-09-26T15:15:58.401Z,32.30
2018-09-26T15:18:26.345Z,32.40
2018-09-26T15:20:54.289Z,32.50
2018-09-26T15:23:22.534Z,32.70
2018-09-26T15:25:50.442Z,32.80
2018-09-26T15:28:18.397Z,32.20
2018-09-26T15:30:47.493Z,33.00
2018-09-26T15:33:15.461Z,33.10
2018-09-26T15:35:43.400Z,33.30
2018-09-26T15:38:11.826Z,33.40
2018-09-26T15:41:59.051Z,33.50
2018-09-26T15:44:27.395Z,33.80
2018-09-26T15:46:55.334Z,34.00
2018-09-26T15:49:23.473Z,34.10
2018-09-26T15:51:51.496Z,34.20
2018-09-26T15:54:19.526Z,34.20
2018-09-26T15:56:47.675Z,34.30
2018-09-26T15:59:15.654Z,34.40
2018-09-26T16:01:43.620Z,34.50
2018-09-26T16:04:24.644Z,34.60
2018-09-26T16:06:52.264Z,34.70
2018-09-26T16:09:20.202Z,34.80
2018-09-26T16:11:47.757Z,34.90
2018-09-26T16:14:15.401Z,35.00
2018-09-26T16:16:43.315Z,35.00
2018-09-26T16:19:10.971Z,35.10
2018-09-26T16:21:38.520Z,35.10
2018-09-26T16:24:06.395Z,35.10
2018-09-26T16:26:33.925Z,35.20
2018-09-26T16:29:01.661Z,35.20
2018-09-26T16:31:29.748Z,35.40
2018-09-26T16:33:57.287Z,35.30
2018-09-26T16:36:25.364Z,35.30
2018-09-26T16:38:52.815Z,35.40
2018-09-26T16:41:20.475Z,35.40
2018-09-26T16:43:48.384Z,35.50
2018-09-26T16:46:16.000Z,35.60
2018-09-26T16:48:43.749Z,35.60
2018-09-26T16:51:11.492Z,35.80
2018-09-26T16:53:39.166Z,35.80
2018-09-26T16:56:07.083Z,36.00
2018-09-26T16:58:35.004Z,36.30
2018-09-26T17:01:02.581Z,36.50
2018-09-26T17:03:30.162Z,36.60
2018-09-26T17:05:57.759Z,36.70
2018-09-26T17:08:25.369Z,36.90
2018-09-26T17:10:52.968Z,36.90
2018-09-26T17:13:20.565Z,36.90
2018-09-26T17:15:48.496Z,37.10
2018-09-26T17:18:16.230Z,37.20
2018-09-26T17:20:43.758Z,37.30
2018-09-26T17:23:11.809Z,37.60
2018-09-26T17:25:39.424Z,37.80
2018-09-26T17:28:07.021Z,38.60
2018-09-26T17:30:34.570Z,38.10
2018-09-26T17:33:02.613Z,38.30
2018-09-26T17:35:30.514Z,38.40
2018-09-26T17:37:58.228Z,38.60
2018-09-26T17:40:25.813Z,38.80
2018-09-26T17:42:53.462Z,39.00
2018-09-26T17:45:21.055Z,39.20
2018-09-26T17:47:48.590Z,39.30
2018-09-26T17:50:16.243Z,39.20
2018-09-26T17:52:43.818Z,39.30
2018-09-26T17:55:11.445Z,39.60
2018-09-26T17:57:39.224Z,39.80
2018-09-26T18:00:07.258Z,39.90
2018-09-26T18:02:34.889Z,40.10
2018-09-26T18:05:11.937Z,40.10
2018-09-26T18:07:39.877Z,40.60
2018-09-26T18:10:28.980Z,40.20
2018-09-26T18:12:56.560Z,40.30
2018-09-26T18:15:24.164Z,40.40
2018-09-26T18:17:51.965Z,41.30
2018-09-26T18:20:19.549Z,40.90
2018-09-26T18:22:47.158Z,41.00
2018-09-26T18:25:14.872Z,41.10
2018-09-26T18:27:42.538Z,41.20
2018-09-26T18:30:10.072Z,41.20
2018-09-26T18:32:38.493Z,41.40
2018-09-26T18:35:06.240Z,41.60
2018-09-26T18:37:34.105Z,41.60
2018-09-26T18:40:01.903Z,41.80
2018-09-26T18:42:29.506Z,42.00
2018-09-26T18:44:57.075Z,42.20
2018-09-26T18:47:24.777Z,42.30
2018-09-26T18:49:52.369Z,42.40
2018-09-26T18:52:19.972Z,42.70
2018-09-26T18:54:47.914Z,42.90
2018-09-26T18:57:15.512Z,43.10
2018-09-26T18:59:43.261Z,43.10
2018-09-26T19:02:10.845Z,43.20
2018-09-26T19:04:38.464Z,43.10
2018-09-26T19:07:06.119Z,43.10
2018-09-26T19:09:35.238Z,43.30
2018-09-26T19:12:02.848Z,43.20
2018-09-26T19:14:30.374Z,43.30
2018-09-26T19:16:58.349Z,43.30
2018-09-26T19:19:25.937Z,43.40
2018-09-26T19:21:53.568Z,43.20
2018-09-26T19:24:21.349Z,43.30
2018-09-26T19:26:48.992Z,43.50
2018-09-26T19:29:16.584Z,43.60
2018-09-26T19:31:44.453Z,43.60
2018-09-26T19:34:12.057Z,43.60
2018-09-26T19:36:40.000Z,43.50
2018-09-26T19:39:09.219Z,43.60
2018-09-26T19:41:36.748Z,43.70
2018-09-26T19:44:04.628Z,43.60
2018-09-26T19:46:32.209Z,43.70
2018-09-26T19:48:59.812Z,43.70
2018-09-26T19:51:27.735Z,43.70
2018-09-26T19:53:55.339Z,43.70
2018-09-26T19:56:23.335Z,43.80
2018-09-26T19:58:50.886Z,43.80
2018-09-26T20:01:18.505Z,44.00
2018-09-26T20:03:46.347Z,44.10
2018-09-26T20:06:13.927Z,44.20
2018-09-26T20:08:41.495Z,44.30
2018-09-26T20:11:09.514Z,44.40
2018-09-26T20:13:37.098Z,44.40
2018-09-26T20:16:04.665Z,44.50
2018-09-26T20:18:32.503Z,44.60
2018-09-26T20:21:00.127Z,44.60
2018-09-26T20:23:27.922Z,44.60
2018-09-26T20:25:55.401Z,44.70
2018-09-26T20:28:23.008Z,44.90
2018-09-26T20:30:50.689Z,45.10
2018-09-26T20:33:18.518Z,45.20
2018-09-26T20:35:46.136Z,45.30
2018-09-26T20:38:13.704Z,45.50
2018-09-26T20:40:42.417Z,45.70
2018-09-26T20:43:09.986Z,45.80
2018-09-26T20:45:37.673Z,46.00
2018-09-26T20:48:05.517Z,46.20
2018-09-26T20:50:33.110Z,46.30
2018-09-26T20:53:00.696Z,46.40
2018-09-26T20:55:28.733Z,46.40
2018-09-26T20:57:56.334Z,46.50
2018-09-26T21:00:23.978Z,46.50
2018-09-26T21:02:51.732Z,46.70
2018-09-26T22:09:24.430Z,46.40
2018-09-26T22:11:52.055Z,47.30
2018-09-26T22:14:19.778Z,47.20
2018-09-26T22:16:47.356Z,47.10
2018-09-26T22:19:15.043Z,47.00
2018-09-26T22:21:42.868Z,46.90
2018-09-26T22:24:10.472Z,46.80
2018-09-26T22:26:38.049Z,46.70
2018-09-26T22:29:05.712Z,46.70
2018-09-26T22:31:33.341Z,46.60
2018-09-26T22:34:00.946Z,46.20
2018-09-26T22:36:28.585Z,46.00
2018-09-26T22:38:56.103Z,45.50
2018-09-26T22:41:24.229Z,45.10
2018-09-26T22:43:51.989Z,44.90
2018-09-26T22:46:19.626Z,44.70
2018-09-26T22:48:47.195Z,44.40
2018-09-26T22:51:14.926Z,44.30
2018-09-26T22:53:42.509Z,44.20
2018-09-26T22:56:10.057Z,43.90
2018-09-26T22:58:37.925Z,43.70
2018-09-26T23:01:05.513Z,43.40
2018-09-26T23:03:33.140Z,43.10
2018-09-26T23:06:01.314Z,42.80
2018-09-26T23:08:28.873Z,42.60
2018-09-26T23:10:56.485Z,42.50
2018-09-26T23:13:24.331Z,42.30
2018-09-26T23:15:51.975Z,42.00
2018-09-26T23:18:20.107Z,41.80
2018-09-26T23:20:47.705Z,41.60
2018-09-26T23:23:15.515Z,41.40
2018-09-26T23:25:43.161Z,41.30
2018-09-26T23:28:10.744Z,41.20
2018-09-26T23:30:38.304Z,41.00
2018-09-26T23:33:05.829Z,40.90
2018-09-26T23:35:33.639Z,40.60
2018-09-26T23:38:01.273Z,40.50
2018-09-26T23:40:28.868Z,40.30
2018-09-26T23:42:56.475Z,40.10
2018-09-26T23:45:34.645Z,40.10
2018-09-26T23:48:08.716Z,39.90
2018-09-26T23:50:36.297Z,39.90
2018-09-26T23:53:07.232Z,39.90
2018-09-26T23:55:36.093Z,39.60
2018-09-26T23:58:11.236Z,39.70
